Time;durP1;ratioP1;P1;durP2;ratioP2;P2;SDS_P1;SDS_P2;PMS_P1;PMS_P2;Temp;Humidity;BMP_temperature;BMP_pressure;BME280_temperature;BME280_humidity;BME280_pressure;Samples;Min_cycle;Max_cycle;Signal;HPM_P1;HPM_P2
2023/08/01 00:00:51;;;;;;;7.20;4.13;;;19.20;99.90;;;;;;4987046;28;20277;-76
2023/08/01 00:03:17;;;;;;;9.80;3.88;;;19.20;99.90;;;;;;4983165;28;20214;-74
2023/08/01 00:05:44;;;;;;;7.20;3.95;;;19.20;99.90;;;;;;4984836;28;20225;-76
2023/08/01 00:08:12;;;;;;;6.88;4.50;;;19.20;99.90;;;;;;4989000;28;20288;-76
2023/08/01 00:10:38;;;;;;;9.00;4.43;;;19.20;99.90;;;;;;4985641;28;20569;-74
2023/08/01 00:13:04;;;;;;;7.97;3.92;;;19.10;99.90;;;;;;4989813;28;20213;-76
2023/08/01 00:15:30;;;;;;;6.47;3.75;;;19.10;99.90;;;;;;4982824;28;20210;-75
2023/08/01 00:17:56;;;;;;;8.05;4.13;;;19.10;99.90;;;;;;5011161;28;20621;-75
2023/08/01 00:20:21;;;;;;;5.57;3.90;;;19.00;99.90;;;;;;4998082;28;20213;-75
2023/08/01 00:22:47;;;;;;;7.80;3.88;;;19.00;99.90;;;;;;4991889;28;20278;-76
2023/08/01 00:25:13;;;;;;;7.05;3.95;;;19.00;99.90;;;;;;4996873;28;20181;-75
2023/08/01 00:27:39;;;;;;;8.25;4.10;;;19.00;99.90;;;;;;4994444;28;20370;-75
2023/08/01 00:30:05;;;;;;;6.00;3.53;;;19.00;99.90;;;;;;5001940;28;20202;-76
2023/08/01 00:32:31;;;;;;;7.40;3.45;;;18.90;99.90;;;;;;5003295;28;20218;-75
2023/08/01 00:34:57;;;;;;;5.97;3.20;;;18.90;99.90;;;;;;5010024;28;20204;-75
2023/08/01 00:37:22;;;;;;;6.35;3.80;;;18.90;99.90;;;;;;4999327;28;20198;-75
2023/08/01 00:39:48;;;;;;;5.10;3.17;;;18.90;99.90;;;;;;4990844;28;20200;-75
2023/08/01 00:42:15;;;;;;;4.65;3.05;;;18.80;99.90;;;;;;4984465;28;20680;-75
2023/08/01 00:44:40;;;;;;;5.65;3.25;;;18.70;99.90;;;;;;4988918;28;20760;-76
2023/08/01 00:47:07;;;;;;;5.05;3.03;;;18.50;99.90;;;;;;4998194;28;20718;-75
2023/08/01 00:49:32;;;;;;;4.47;2.75;;;18.50;99.90;;;;;;4982104;28;20182;-76
2023/08/01 00:51:58;;;;;;;4.22;3.05;;;18.50;99.90;;;;;;4986953;28;20212;-76
2023/08/01 00:54:25;;;;;;;4.63;2.75;;;18.50;99.90;;;;;;4995314;28;20221;-75
2023/08/01 00:56:51;;;;;;;3.45;2.72;;;18.60;99.90;;;;;;4997574;28;20208;-75
2023/08/01 00:59:16;;;;;;;5.68;2.78;;;18.60;99.90;;;;;;5002339;28;20221;-76
2023/08/01 01:01:42;;;;;;;4.57;2.92;;;18.50;99.90;;;;;;4997811;28;20181;-76
2023/08/01 01:04:08;;;;;;;4.50;3.15;;;18.40;99.90;;;;;;4991412;28;20197;-75
2023/08/01 01:06:42;;;;;;;4.22;2.90;;;18.50;99.90;;;;;;4987212;28;20233;-76
2023/08/01 01:09:17;;;;;;;4.15;3.08;;;18.40;99.90;;;;;;4990993;28;20605;-74
2023/08/01 01:11:44;;;;;;;3.60;2.78;;;18.40;99.90;;;;;;4987445;28;20217;-76
2023/08/01 01:14:10;;;;;;;4.05;3.15;;;18.40;99.90;;;;;;5001382;28;20260;-75
2023/08/01 01:16:36;;;;;;;3.95;2.90;;;18.40;99.90;;;;;;4986693;28;20621;-76
2023/08/01 01:19:06;;;;;;;7.50;3.30;;;18.40;99.90;;;;;;4987410;28;20202;-76
2023/08/01 01:21:37;;;;;;;5.65;3.20;;;18.40;99.90;;;;;;4987288;28;20684;-77
2023/08/01 01:24:05;;;;;;;5.35;2.90;;;18.30;99.90;;;;;;4998435;28;20213;-78
2023/08/01 01:26:33;;;;;;;5.13;3.08;;;18.30;99.90;;;;;;4980345;28;20249;-77
2023/08/01 01:29:00;;;;;;;4.22;2.65;;;18.30;99.90;;;;;;4987634;28;20385;-77
2023/08/01 01:31:27;;;;;;;4.47;2.72;;;18.30;99.90;;;;;;4994510;28;20193;-75
2023/08/01 01:33:53;;;;;;;3.67;2.95;;;18.10;99.90;;;;;;4997301;28;20217;-76
2023/08/01 01:36:18;;;;;;;3.28;2.97;;;18.10;99.90;;;;;;4993342;28;20201;-77
2023/08/01 01:38:44;;;;;;;4.90;2.95;;;18.10;99.90;;;;;;4996547;28;20216;-77
2023/08/01 01:41:11;;;;;;;5.20;3.47;;;18.20;99.90;;;;;;4994296;28;20210;-77
2023/08/01 01:43:37;;;;;;;4.47;3.03;;;18.30;99.90;;;;;;4993503;28;20551;-77
2023/08/01 01:46:03;;;;;;;4.63;3.10;;;18.20;99.90;;;;;;4989028;28;20213;-76
2023/08/01 01:48:29;;;;;;;5.20;3.15;;;18.20;99.90;;;;;;4988814;28;20631;-76
2023/08/01 01:50:54;;;;;;;5.10;3.28;;;18.30;99.90;;;;;;4988049;28;20255;-77
2023/08/01 01:53:20;;;;;;;5.47;3.65;;;18.30;99.90;;;;;;4986978;28;20574;-77
2023/08/01 01:55:46;;;;;;;6.07;2.97;;;18.20;99.90;;;;;;4989588;28;20281;-76
2023/08/01 01:58:11;;;;;;;4.90;3.63;;;18.20;99.90;;;;;;4984162;28;20189;-76
2023/08/01 02:00:37;;;;;;;4.03;3.45;;;18.10;99.90;;;;;;4981416;28;20206;-77
2023/08/01 02:03:02;;;;;;;5.22;3.35;;;18.10;99.90;;;;;;4983372;28;20211;-76
2023/08/01 02:05:29;;;;;;;5.55;3.58;;;18.00;99.90;;;;;;4979968;28;20211;-77
2023/08/01 02:07:55;;;;;;;5.97;3.85;;;18.00;99.90;;;;;;4985810;28;20181;-77
2023/08/01 02:10:21;;;;;;;5.53;3.50;;;18.10;99.90;;;;;;4997887;28;20189;-77
2023/08/01 02:12:46;;;;;;;5.72;3.50;;;18.10;99.90;;;;;;4994677;28;20218;-76
2023/08/01 02:15:12;;;;;;;5.68;3.70;;;18.00;99.90;;;;;;4988637;28;20206;-76
2023/08/01 02:17:37;;;;;;;6.38;3.83;;;18.00;99.90;;;;;;4991943;28;20213;-77
2023/08/01 02:20:03;;;;;;;4.97;3.35;;;18.10;99.90;;;;;;4990042;28;20201;-77
2023/08/01 02:22:30;;;;;;;4.53;3.28;;;18.10;99.90;;;;;;5000669;28;20228;-77
2023/08/01 02:24:56;;;;;;;5.43;3.58;;;18.10;99.90;;;;;;4989105;28;20206;-77
2023/08/01 02:27:21;;;;;;;5.82;3.97;;;18.10;99.90;;;;;;4987944;28;20228;-77
2023/08/01 02:29:47;;;;;;;7.68;4.20;;;18.10;99.90;;;;;;4985499;28;20218;-77
2023/08/01 02:32:12;;;;;;;4.90;3.25;;;18.10;99.90;;;;;;4983945;28;20213;-77
2023/08/01 02:34:38;;;;;;;5.47;3.60;;;18.10;99.90;;;;;;4984106;28;20282;-76
2023/08/01 02:37:04;;;;;;;4.25;3.20;;;18.20;99.90;;;;;;4990105;28;20209;-77
2023/08/01 02:39:30;;;;;;;4.60;3.60;;;18.10;99.90;;;;;;4977986;28;22450;-77
2023/08/01 02:41:55;;;;;;;5.22;3.97;;;18.00;99.90;;;;;;4984504;28;20202;-77
2023/08/01 02:44:21;;;;;;;8.50;3.60;;;18.10;99.90;;;;;;4987586;28;20268;-76
2023/08/01 02:46:47;;;;;;;5.57;3.67;;;18.00;99.90;;;;;;4999159;28;20189;-77
2023/08/01 02:49:12;;;;;;;6.35;3.95;;;18.00;99.90;;;;;;4990451;28;20808;-77
2023/08/01 02:51:38;;;;;;;5.90;3.72;;;18.10;99.90;;;;;;4986485;28;20215;-77
2023/08/01 02:54:03;;;;;;;5.65;3.67;;;18.20;99.90;;;;;;4987326;28;20213;-77
2023/08/01 02:56:29;;;;;;;7.45;3.58;;;18.20;99.90;;;;;;4995624;28;20302;-77
2023/08/01 02:58:55;;;;;;;7.03;3.78;;;18.20;99.90;;;;;;4988003;28;20517;-76
2023/08/01 03:01:21;;;;;;;5.07;3.85;;;18.10;99.90;;;;;;4985275;28;20173;-77
2023/08/01 03:03:47;;;;;;;4.68;3.60;;;18.00;99.90;;;;;;4986449;28;20229;-77
2023/08/01 03:06:14;;;;;;;6.15;3.72;;;18.10;99.90;;;;;;4984545;28;20726;-77
2023/08/01 03:08:40;;;;;;;6.68;3.75;;;18.20;99.90;;;;;;4990864;28;20213;-77
2023/08/01 03:11:05;;;;;;;4.78;3.67;;;18.10;99.90;;;;;;4983246;28;20214;-75
2023/08/01 03:13:31;;;;;;;6.75;3.90;;;18.10;99.90;;;;;;4983893;28;20609;-77
2023/08/01 03:15:56;;;;;;;7.57;3.78;;;18.00;99.90;;;;;;4981466;28;20211;-76
2023/08/01 03:18:22;;;;;;;5.38;3.55;;;18.10;99.90;;;;;;4985950;28;20659;-77
2023/08/01 03:20:48;;;;;;;4.90;3.88;;;18.00;99.90;;;;;;4987091;28;20681;-76
2023/08/01 03:23:13;;;;;;;6.05;3.95;;;18.00;99.90;;;;;;4988400;28;20217;-77
2023/08/01 03:25:39;;;;;;;5.43;3.60;;;18.10;99.90;;;;;;4987283;28;20564;-77
2023/08/01 03:28:05;;;;;;;5.50;3.63;;;18.10;99.90;;;;;;4987600;28;20216;-77
2023/08/01 03:30:32;;;;;;;6.78;4.30;;;18.00;99.90;;;;;;4995460;28;20216;-77
2023/08/01 03:32:58;;;;;;;4.85;3.78;;;18.00;99.90;;;;;;4986231;28;20220;-77
2023/08/01 03:35:23;;;;;;;5.45;3.67;;;18.00;99.90;;;;;;4985461;28;20209;-77
2023/08/01 03:37:49;;;;;;;6.35;4.15;;;18.00;99.90;;;;;;4985752;28;20712;-77
2023/08/01 03:40:15;;;;;;;4.32;3.50;;;17.90;99.90;;;;;;4988943;28;20177;-77
2023/08/01 03:42:40;;;;;;;5.75;3.47;;;17.90;99.90;;;;;;4985635;28;20209;-76
2023/08/01 03:45:07;;;;;;;5.03;3.40;;;18.00;99.90;;;;;;4983333;28;20280;-76
2023/08/01 03:47:33;;;;;;;4.97;3.42;;;18.10;99.90;;;;;;4981482;28;20272;-77
2023/08/01 03:49:58;;;;;;;9.85;3.95;;;18.10;99.90;;;;;;4981589;28;20202;-78
2023/08/01 03:52:24;;;;;;;5.70;3.53;;;18.10;99.90;;;;;;4983843;28;20174;-77
2023/08/01 03:54:54;;;;;;;5.38;4.18;;;18.00;99.90;;;;;;4979179;28;20210;-77
2023/08/01 03:57:19;;;;;;;7.28;3.97;;;18.00;99.90;;;;;;4993628;28;20704;-77
2023/08/01 03:59:46;;;;;;;6.13;3.72;;;18.00;99.90;;;;;;4987433;28;20294;-77
2023/08/01 04:02:12;;;;;;;6.97;3.50;;;18.10;99.90;;;;;;4987276;28;20209;-77
2023/08/01 04:04:38;;;;;;;6.15;4.35;;;18.10;99.90;;;;;;4987002;28;20177;-77
2023/08/01 04:07:04;;;;;;;4.50;3.42;;;18.10;99.90;;;;;;4985985;28;20696;-76
2023/08/01 04:09:30;;;;;;;6.20;3.78;;;18.10;99.90;;;;;;4985672;28;20213;-77
2023/08/01 04:11:55;;;;;;;6.85;3.28;;;18.10;99.90;;;;;;4983662;28;20311;-77
2023/08/01 04:14:21;;;;;;;7.50;3.25;;;18.00;99.90;;;;;;4987493;28;20584;-77
2023/08/01 04:16:47;;;;;;;5.78;3.47;;;18.10;99.90;;;;;;4981564;28;20233;-77
2023/08/01 04:19:13;;;;;;;7.68;3.50;;;18.10;99.90;;;;;;4984198;28;20276;-77
2023/08/01 04:21:38;;;;;;;8.68;3.42;;;18.10;99.90;;;;;;4980602;28;20210;-77
2023/08/01 04:24:04;;;;;;;6.28;3.53;;;18.20;99.90;;;;;;4982025;28;20622;-77
2023/08/01 04:26:30;;;;;;;2.90;2.70;;;18.20;99.90;;;;;;4984994;28;20217;-77
2023/08/01 04:28:55;;;;;;;5.00;3.17;;;18.20;99.90;;;;;;4979446;28;20236;-77
2023/08/01 04:31:21;;;;;;;3.70;2.90;;;18.30;99.90;;;;;;4987016;28;20197;-77
2023/08/01 04:33:46;;;;;;;6.13;4.93;;;18.40;99.90;;;;;;4981180;28;20224;-77
2023/08/01 04:36:12;;;;;;;6.55;3.40;;;18.30;99.90;;;;;;4995047;28;20223;-77
2023/08/01 04:38:38;;;;;;;4.78;2.80;;;18.40;99.90;;;;;;4994150;28;20209;-76
2023/08/01 04:41:03;;;;;;;5.72;3.63;;;18.40;99.90;;;;;;4985684;28;20209;-77
2023/08/01 04:43:29;;;;;;;6.05;3.70;;;18.40;99.90;;;;;;4988795;28;20649;-77
2023/08/01 04:45:54;;;;;;;4.07;3.40;;;18.50;99.90;;;;;;4983789;28;20220;-77
2023/08/01 04:48:20;;;;;;;4.72;3.17;;;18.50;99.90;;;;;;4985157;28;20583;-76
2023/08/01 04:50:46;;;;;;;4.97;3.13;;;18.40;99.90;;;;;;4982286;28;20224;-76
2023/08/01 04:53:12;;;;;;;5.72;2.72;;;18.40;99.90;;;;;;4986289;28;20228;-76
2023/08/01 04:55:38;;;;;;;4.43;2.70;;;18.30;99.90;;;;;;4999833;28;20177;-77
2023/08/01 04:58:03;;;;;;;4.28;2.50;;;18.40;99.90;;;;;;4986942;28;20580;-76
2023/08/01 05:00:29;;;;;;;4.55;2.45;;;18.40;99.90;;;;;;4986982;28;20310;-77
2023/08/01 05:02:54;;;;;;;4.80;3.22;;;18.40;99.90;;;;;;4983924;28;20733;-77
2023/08/01 05:05:20;;;;;;;4.80;2.83;;;18.40;99.90;;;;;;4985809;28;20201;-77
2023/08/01 05:07:46;;;;;;;4.50;2.65;;;18.40;99.90;;;;;;4981277;28;20225;-74
2023/08/01 05:10:11;;;;;;;3.60;3.03;;;18.50;99.90;;;;;;4987764;28;20193;-77
2023/08/01 05:12:37;;;;;;;3.80;3.05;;;18.50;99.90;;;;;;4993538;28;20201;-77
2023/08/01 05:15:03;;;;;;;5.20;2.67;;;18.50;99.90;;;;;;4996723;28;20209;-77
2023/08/01 05:17:29;;;;;;;5.00;3.55;;;18.50;99.90;;;;;;4989681;28;20225;-77
2023/08/01 05:19:55;;;;;;;6.57;3.15;;;18.50;99.90;;;;;;4996032;28;20264;-77
2023/08/01 05:22:21;;;;;;;4.28;2.75;;;18.50;99.90;;;;;;4997977;28;20173;-77
2023/08/01 05:24:46;;;;;;;5.28;3.67;;;18.40;99.90;;;;;;4993357;28;20202;-77
2023/08/01 05:27:12;;;;;;;5.05;4.03;;;18.50;99.90;;;;;;4993782;28;20457;-77
2023/08/01 05:29:38;;;;;;;3.95;3.05;;;18.60;99.90;;;;;;4990349;28;20205;-77
2023/08/01 05:32:03;;;;;;;6.25;3.25;;;18.80;99.90;;;;;;4989967;28;20210;-77
2023/08/01 05:34:29;;;;;;;4.53;2.67;;;18.70;99.90;;;;;;4987548;28;20202;-77
2023/08/01 05:36:55;;;;;;;3.60;3.03;;;18.70;99.90;;;;;;4992992;28;20853;-77
2023/08/01 05:39:20;;;;;;;4.90;3.00;;;18.60;99.90;;;;;;4987490;28;20206;-77
2023/08/01 05:41:46;;;;;;;3.10;2.80;;;18.70;99.90;;;;;;4989281;28;20214;-76
2023/08/01 05:44:12;;;;;;;4.03;3.25;;;18.60;99.90;;;;;;4991846;28;20224;-77
2023/08/01 05:46:37;;;;;;;4.90;2.70;;;18.60;99.90;;;;;;4994236;28;20197;-77
2023/08/01 05:49:03;;;;;;;5.22;3.10;;;18.60;99.90;;;;;;4991504;28;20260;-77
2023/08/01 05:51:28;;;;;;;3.38;3.00;;;18.60;99.90;;;;;;4993343;28;20209;-77
2023/08/01 05:53:54;;;;;;;6.70;3.60;;;18.70;99.90;;;;;;5002279;28;20213;-77
2023/08/01 05:56:20;;;;;;;4.10;2.90;;;18.60;99.90;;;;;;4997117;28;20347;-76
2023/08/01 05:58:45;;;;;;;3.60;2.75;;;18.70;99.90;;;;;;5002444;28;20169;-77
2023/08/01 06:01:11;;;;;;;4.80;3.28;;;18.70;99.90;;;;;;4994621;28;20212;-77
2023/08/01 06:03:38;;;;;;;6.85;3.30;;;18.80;99.90;;;;;;4993631;28;20221;-77
2023/08/01 06:06:04;;;;;;;4.60;2.83;;;18.80;99.90;;;;;;4988941;28;20214;-77
2023/08/01 06:08:30;;;;;;;3.80;2.90;;;18.80;99.90;;;;;;4987981;28;20237;-77
2023/08/01 06:10:56;;;;;;;5.85;3.28;;;18.80;99.90;;;;;;4986288;28;20221;-77
2023/08/01 06:13:21;;;;;;;4.80;3.10;;;18.80;99.90;;;;;;4986851;28;20208;-77
2023/08/01 06:15:47;;;;;;;6.72;3.20;;;18.80;99.90;;;;;;4983578;28;21242;-77
2023/08/01 06:18:12;;;;;;;4.05;2.85;;;18.90;99.90;;;;;;4986557;28;20286;-75
2023/08/01 06:20:39;;;;;;;4.70;3.03;;;18.80;99.90;;;;;;4982113;28;20267;-75
2023/08/01 06:23:05;;;;;;;4.35;2.85;;;18.80;99.90;;;;;;4986705;28;20202;-75
2023/08/01 06:25:31;;;;;;;3.75;3.00;;;18.70;99.90;;;;;;4999312;28;20177;-75
2023/08/01 06:27:56;;;;;;;4.75;3.08;;;18.80;99.90;;;;;;5003992;28;20647;-76
2023/08/01 06:30:22;;;;;;;4.55;2.67;;;18.80;99.90;;;;;;4998269;28;20207;-76
2023/08/01 06:32:47;;;;;;;4.30;2.90;;;18.90;99.90;;;;;;4994101;28;20208;-76
2023/08/01 06:35:13;;;;;;;3.88;2.83;;;18.90;99.90;;;;;;4995884;28;20335;-76
2023/08/01 06:37:39;;;;;;;3.60;3.03;;;19.00;99.90;;;;;;4990141;28;20555;-75
2023/08/01 06:40:07;;;;;;;4.10;2.78;;;18.90;99.90;;;;;;5000803;28;20218;-73
2023/08/01 06:42:33;;;;;;;5.75;2.90;;;19.00;99.90;;;;;;4988376;28;20260;-76
2023/08/01 06:44:58;;;;;;;2.95;2.58;;;19.10;99.90;;;;;;4985828;28;20197;-76
2023/08/01 06:47:24;;;;;;;4.65;2.70;;;19.10;99.90;;;;;;4991046;28;20224;-75
2023/08/01 06:49:50;;;;;;;7.13;2.55;;;19.10;99.90;;;;;;4988665;28;20675;-76
2023/08/01 06:52:15;;;;;;;3.15;2.58;;;19.00;99.90;;;;;;4986192;28;20181;-76
2023/08/01 06:54:41;;;;;;;3.17;2.45;;;19.00;99.90;;;;;;4986560;28;20217;-76
2023/08/01 06:57:07;;;;;;;5.82;2.78;;;19.10;99.90;;;;;;4981500;28;20285;-74
2023/08/01 06:59:33;;;;;;;4.18;2.65;;;19.20;99.90;;;;;;4996098;28;20216;-75
2023/08/01 07:01:58;;;;;;;5.97;2.92;;;19.10;99.90;;;;;;4990207;28;20170;-76
2023/08/01 07:04:24;;;;;;;3.45;2.70;;;19.20;99.90;;;;;;4999813;28;20600;-76
2023/08/01 07:06:50;;;;;;;2.85;2.35;;;19.30;99.90;;;;;;4995185;28;20593;-75
2023/08/01 07:09:15;;;;;;;4.88;2.92;;;19.20;99.90;;;;;;4994181;28;20217;-76
2023/08/01 07:11:41;;;;;;;5.18;2.78;;;19.30;99.90;;;;;;4992684;28;20865;-76
2023/08/01 07:14:06;;;;;;;3.58;2.58;;;19.50;99.90;;;;;;4991507;28;20228;-75
2023/08/01 07:16:32;;;;;;;3.45;2.88;;;19.40;99.90;;;;;;4991761;28;20246;-76
2023/08/01 07:19:00;;;;;;;6.72;2.92;;;19.50;99.90;;;;;;4989613;28;20214;-72
2023/08/01 07:21:25;;;;;;;4.95;2.78;;;19.60;99.90;;;;;;4989601;28;20233;-76
2023/08/01 07:23:51;;;;;;;4.50;2.70;;;19.70;99.90;;;;;;4988529;28;20237;-76
2023/08/01 07:26:17;;;;;;;3.75;2.42;;;19.80;99.90;;;;;;4986688;28;20602;-75
2023/08/01 07:28:43;;;;;;;3.65;2.28;;;20.00;99.90;;;;;;4983867;28;20193;-75
2023/08/01 07:31:09;;;;;;;3.22;2.50;;;20.30;99.90;;;;;;4982862;28;20240;-76
2023/08/01 07:33:35;;;;;;;5.07;3.40;;;20.40;99.90;;;;;;4996544;28;20212;-76
2023/08/01 07:36:01;;;;;;;6.40;2.75;;;20.50;99.90;;;;;;4980083;28;20209;-76
2023/08/01 07:38:27;;;;;;;5.57;3.95;;;21.00;99.90;;;;;;4995146;28;20209;-76
2023/08/01 07:40:54;;;;;;;12.82;9.00;;;21.50;99.90;;;;;;4994079;28;20608;-76
2023/08/01 07:43:19;;;;;;;4.50;2.58;;;22.30;99.90;;;;;;4996830;28;20179;-76
2023/08/01 07:45:45;;;;;;;3.80;2.70;;;22.70;99.90;;;;;;4993752;28;20205;-77
2023/08/01 07:48:11;;;;;;;3.72;2.80;;;22.80;99.90;;;;;;5001769;28;20569;-76
2023/08/01 07:50:37;;;;;;;4.38;2.55;;;23.00;99.90;;;;;;4992802;28;20292;-76
2023/08/01 07:53:02;;;;;;;3.63;3.20;;;22.50;99.90;;;;;;4998783;28;20344;-76
2023/08/01 07:55:28;;;;;;;3.22;2.30;;;22.80;99.90;;;;;;4991484;28;20169;-77
2023/08/01 07:57:54;;;;;;;3.80;2.22;;;22.20;99.90;;;;;;4986984;28;20698;-76
2023/08/01 08:00:19;;;;;;;3.05;2.10;;;21.80;99.90;;;;;;4987559;28;20206;-76
2023/08/01 08:02:46;;;;;;;3.20;2.38;;;22.00;99.90;;;;;;4997755;28;20202;-76
2023/08/01 08:05:12;;;;;;;3.83;2.40;;;22.70;99.90;;;;;;4983694;28;20214;-77
2023/08/01 08:07:38;;;;;;;4.85;2.67;;;23.60;99.90;;;;;;4997837;28;20296;-77
2023/08/01 08:10:05;;;;;;;3.45;2.22;;;24.50;99.90;;;;;;4979855;28;20743;-76
2023/08/01 08:12:30;;;;;;;2.15;1.95;;;24.90;99.90;;;;;;4983631;28;20688;-77
2023/08/01 08:14:56;;;;;;;6.13;2.90;;;25.30;99.90;;;;;;4992849;28;20248;-77
2023/08/01 08:17:22;;;;;;;4.28;2.92;;;25.30;99.90;;;;;;4986472;28;20226;-75
2023/08/01 08:19:47;;;;;;;4.65;2.10;;;25.50;99.90;;;;;;4986160;28;20177;-75
2023/08/01 08:22:13;;;;;;;6.70;3.88;;;25.30;99.90;;;;;;5002463;28;20645;-75
2023/08/01 08:24:38;;;;;;;4.88;2.95;;;24.90;99.90;;;;;;4986230;28;20213;-76
2023/08/01 08:27:05;;;;;;;3.60;1.80;;;24.50;99.90;;;;;;4989736;28;20221;-74
2023/08/01 08:29:31;;;;;;;2.13;1.90;;;24.10;99.90;;;;;;4994825;28;20193;-75
2023/08/01 08:31:57;;;;;;;2.88;1.60;;;23.80;99.90;;;;;;5002235;28;20197;-75
2023/08/01 08:34:23;;;;;;;5.70;4.03;;;23.60;99.90;;;;;;5014578;22;20266;-75
2023/08/01 08:36:50;;;;;;;2.75;2.20;;;23.50;99.90;;;;;;5034089;28;20219;-77
2023/08/01 08:39:16;;;;;;;6.40;4.00;;;23.60;99.90;;;;;;5024755;28;20611;-75
2023/08/01 08:41:47;;;;;;;10.27;6.25;;;23.70;99.90;;;;;;5026220;28;20199;-75
2023/08/01 08:44:15;;;;;;;3.85;1.90;;;23.80;99.90;;;;;;5024321;28;20221;-75
2023/08/01 08:46:43;;;;;;;3.60;1.90;;;23.80;99.90;;;;;;5041825;28;20658;-78
2023/08/01 08:49:09;;;;;;;2.67;2.03;;;23.70;99.90;;;;;;5020367;28;20252;-76
2023/08/01 08:51:37;;;;;;;2.92;1.52;;;23.60;99.90;;;;;;5023606;28;20284;-75
2023/08/01 08:54:03;;;;;;;2.55;1.85;;;23.40;99.90;;;;;;5042548;28;20218;-76
2023/08/01 08:56:29;;;;;;;2.08;1.88;;;23.30;99.90;;;;;;5023108;28;20279;-74
2023/08/01 08:58:56;;;;;;;2.70;2.22;;;23.20;99.90;;;;;;5044608;28;20212;-73
2023/08/01 09:01:21;;;;;;;4.95;4.00;;;23.20;99.90;;;;;;5024118;28;20177;-74
2023/08/01 09:03:47;;;;;;;2.05;1.65;;;23.20;99.90;;;;;;5019497;28;20210;-73
2023/08/01 09:06:18;;;;;;;5.55;3.00;;;23.10;99.90;;;;;;5024165;28;20245;-74
2023/08/01 09:09:08;;;;;;;4.68;2.22;;;23.10;99.90;;;;;;5028189;28;20295;-74
2023/08/01 09:11:51;;;;;;;2.60;2.05;;;23.20;99.90;;;;;;5023009;28;20715;-73
2023/08/01 09:14:18;;;;;;;2.17;1.40;;;23.40;99.90;;;;;;5021256;28;20718;-73
2023/08/01 09:16:45;;;;;;;2.25;1.73;;;23.70;99.90;;;;;;5033441;28;20173;-73
2023/08/01 09:19:15;;;;;;;2.05;1.40;;;24.40;99.90;;;;;;5022500;28;20240;-74
2023/08/01 09:21:41;;;;;;;2.42;1.20;;;24.90;99.90;;;;;;5021327;28;20208;-74
2023/08/01 09:24:11;;;;;;;1.20;1.10;;;24.80;99.90;;;;;;5019566;28;20683;-75
2023/08/01 09:26:37;;;;;;;2.17;1.13;;;24.80;99.90;;;;;;5022843;28;20200;-74
2023/08/01 09:29:02;;;;;;;2.53;2.00;;;24.60;99.90;;;;;;5018877;28;20613;-74
2023/08/01 09:31:38;;;;;;;3.83;2.83;;;24.30;99.90;;;;;;5021962;28;20208;-74
2023/08/01 09:34:06;;;;;;;4.25;2.58;;;23.90;99.90;;;;;;5021784;28;20222;-74
2023/08/01 09:36:33;;;;;;;1.27;1.02;;;23.30;99.90;;;;;;5031367;28;20291;-75
2023/08/01 09:39:03;;;;;;;1.20;1.00;;;23.00;99.90;;;;;;5025193;28;20582;-74
2023/08/01 09:41:31;;;;;;;1.40;1.00;;;22.60;99.90;;;;;;5018734;28;20227;-75
2023/08/01 09:43:57;;;;;;;1.77;1.20;;;22.50;99.90;;;;;;5020378;28;20179;-74
2023/08/01 09:46:24;;;;;;;2.90;1.40;;;22.30;99.90;;;;;;5022638;28;20178;-74
2023/08/01 09:48:50;;;;;;;2.15;0.80;;;22.00;99.90;;;;;;5025232;28;20208;-74
2023/08/01 09:51:17;;;;;;;1.08;0.80;;;22.00;99.90;;;;;;5031016;28;20278;-74
2023/08/01 09:53:56;;;;;;;1.85;1.35;;;22.10;99.90;;;;;;5041673;28;20212;-76
2023/08/01 09:56:24;;;;;;;1.35;0.93;;;22.40;99.90;;;;;;5019876;28;20267;-74
2023/08/01 09:58:51;;;;;;;1.40;0.80;;;22.70;99.90;;;;;;5035663;28;20173;-74
2023/08/01 10:01:21;;;;;;;1.13;1.00;;;23.00;99.90;;;;;;5019165;28;20172;-75
2023/08/01 10:03:49;;;;;;;8.98;1.50;;;22.80;99.90;;;;;;5036490;28;20626;-75
2023/08/01 10:06:31;;;;;;;1.52;1.15;;;22.80;99.90;;;;;;5018207;28;20232;-75
2023/08/01 10:08:58;;;;;;;1.73;1.20;;;22.60;99.90;;;;;;5020940;28;20208;-75
2023/08/01 10:11:23;;;;;;;2.67;1.10;;;22.50;99.90;;;;;;5023020;28;20209;-75
2023/08/01 10:13:50;;;;;;;2.25;1.20;;;22.30;99.90;;;;;;5022801;28;20192;-74
2023/08/01 10:16:16;;;;;;;1.50;0.98;;;22.10;99.90;;;;;;5023362;28;20183;-74
2023/08/01 10:18:43;;;;;;;1.00;0.90;;;21.90;99.90;;;;;;5017000;28;20201;-75
2023/08/01 10:21:13;;;;;;;3.28;2.33;;;21.80;99.90;;;;;;5030918;28;20196;-75
2023/08/01 10:23:39;;;;;;;3.10;2.42;;;21.80;99.90;;;;;;5022380;28;20197;-74
2023/08/01 10:26:10;;;;;;;2.38;1.50;;;21.80;99.90;;;;;;5033256;28;20204;-74
2023/08/01 10:28:50;;;;;;;4.45;3.45;;;21.80;99.90;;;;;;5019687;28;20660;-74
2023/08/01 10:31:18;;;;;;;5.97;4.28;;;21.80;99.90;;;;;;5018926;28;20303;-73
2023/08/01 10:33:46;;;;;;;2.28;1.60;;;21.80;99.90;;;;;;5038480;28;20208;-75
2023/08/01 10:36:29;;;;;;;5.60;3.20;;;21.60;99.90;;;;;;5018587;28;20294;-74
2023/08/01 10:38:57;;;;;;;3.03;1.48;;;21.40;99.90;;;;;;5021767;28;20218;-75
2023/08/01 10:41:29;;;;;;;2.78;1.33;;;20.90;99.90;;;;;;5017550;28;20213;-75
2023/08/01 10:44:09;;;;;;;2.20;1.40;;;20.50;99.90;;;;;;5025917;28;20914;-75
2023/08/01 10:46:51;;;;;;;2.45;1.20;;;20.20;99.90;;;;;;5026120;28;20286;-75
2023/08/01 10:49:18;;;;;;;1.75;1.20;;;20.20;99.90;;;;;;5018648;28;20537;-73
2023/08/01 10:51:44;;;;;;;1.30;1.02;;;20.20;99.90;;;;;;5013135;28;20208;-74
2023/08/01 10:54:21;;;;;;;2.25;1.30;;;20.20;99.90;;;;;;5032107;28;20200;-74
2023/08/01 10:56:47;;;;;;;1.45;1.17;;;20.10;99.90;;;;;;5030454;28;20216;-74
2023/08/01 10:59:14;;;;;;;1.55;1.00;;;20.00;99.90;;;;;;5017939;28;20217;-74
2023/08/01 11:01:48;;;;;;;1.90;1.17;;;20.00;99.90;;;;;;5016986;28;20173;-75
2023/08/01 11:04:15;;;;;;;1.80;1.02;;;20.10;99.90;;;;;;5033152;28;20760;-74
2023/08/01 11:06:48;;;;;;;1.30;1.20;;;20.20;99.90;;;;;;5017612;28;20235;-75
2023/08/01 11:09:22;;;;;;;4.07;1.00;;;20.20;99.90;;;;;;5018451;28;20219;-76
2023/08/01 11:11:56;;;;;;;1.98;1.08;;;20.40;99.90;;;;;;5015405;28;20204;-75
2023/08/01 11:14:23;;;;;;;1.38;0.98;;;20.60;99.90;;;;;;5035694;28;20220;-74
2023/08/01 11:16:49;;;;;;;1.67;0.95;;;20.50;99.90;;;;;;5023722;28;20584;-77
2023/08/01 11:19:26;;;;;;;1.25;1.00;;;20.40;99.90;;;;;;5028273;28;20314;-76
2023/08/01 11:21:54;;;;;;;1.38;1.27;;;20.30;99.90;;;;;;5018699;28;20690;-75
2023/08/01 11:24:20;;;;;;;1.83;1.17;;;20.20;99.90;;;;;;5019801;28;20221;-75
2023/08/01 11:26:50;;;;;;;2.30;1.45;;;20.20;99.90;;;;;;5032318;28;20577;-75
2023/08/01 11:29:17;;;;;;;2.63;1.98;;;20.40;99.90;;;;;;5020309;28;20227;-74
2023/08/01 11:31:57;;;;;;;2.53;1.50;;;20.80;99.90;;;;;;5017111;28;20173;-75
2023/08/01 11:34:23;;;;;;;2.97;1.50;;;21.10;99.90;;;;;;5014715;28;20208;-73
2023/08/01 11:36:49;;;;;;;3.20;2.10;;;21.50;99.90;;;;;;5018989;28;20511;-74
2023/08/01 11:39:16;;;;;;;2.92;2.17;;;21.60;99.90;;;;;;5018827;28;20743;-74
2023/08/01 11:41:43;;;;;;;4.95;2.67;;;21.70;99.90;;;;;;5032929;28;20213;-77
2023/08/01 11:44:10;;;;;;;5.82;2.83;;;21.80;99.90;;;;;;5020872;28;20228;-75
2023/08/01 11:46:37;;;;;;;2.67;2.40;;;21.80;99.90;;;;;;5036450;28;20185;-75
2023/08/01 11:49:05;;;;;;;2.90;2.47;;;21.80;99.90;;;;;;5020640;28;20208;-75
2023/08/01 11:51:39;;;;;;;4.38;3.35;;;21.80;99.90;;;;;;5032228;28;20215;-75
2023/08/01 11:54:06;;;;;;;3.90;2.90;;;21.90;99.90;;;;;;5033551;28;20569;-75
2023/08/01 11:56:31;;;;;;;4.18;2.60;;;21.90;99.90;;;;;;5018053;28;20211;-75
2023/08/01 11:58:58;;;;;;;4.75;3.13;;;22.10;99.90;;;;;;5020370;28;20173;-75
2023/08/01 12:01:24;;;;;;;4.15;2.83;;;22.10;99.90;;;;;;5019429;28;20222;-75
2023/08/01 12:03:54;;;;;;;3.80;2.85;;;22.10;99.90;;;;;;5016737;28;20204;-75
2023/08/01 12:06:23;;;;;;;3.13;2.78;;;22.20;99.90;;;;;;5022816;28;20299;-75
2023/08/01 12:08:52;;;;;;;4.15;2.70;;;22.20;99.90;;;;;;5017510;28;20296;-75
2023/08/01 12:11:19;;;;;;;4.10;2.70;;;22.50;99.90;;;;;;5019410;28;20682;-74
2023/08/01 12:13:44;;;;;;;3.35;2.40;;;22.70;99.90;;;;;;5015269;28;20229;-75
2023/08/01 12:16:10;;;;;;;3.17;2.60;;;22.80;99.90;;;;;;5022532;28;20940;-74
2023/08/01 12:18:37;;;;;;;5.43;2.67;;;22.80;99.90;;;;;;5016249;28;20293;-76
2023/08/01 12:21:05;;;;;;;3.88;3.15;;;22.80;99.90;;;;;;5017791;28;20192;-75
2023/08/01 12:23:31;;;;;;;4.88;2.72;;;22.70;99.90;;;;;;5018793;28;20213;-75
2023/08/01 12:25:56;;;;;;;5.40;2.92;;;22.70;99.90;;;;;;5019708;28;20202;-74
2023/08/01 12:28:22;;;;;;;5.80;3.95;;;22.50;99.90;;;;;;5014990;28;20180;-75
2023/08/01 12:30:48;;;;;;;5.55;3.22;;;22.50;99.90;;;;;;5033888;28;20204;-75
2023/08/01 12:33:14;;;;;;;6.05;3.88;;;22.60;99.90;;;;;;5023885;28;20209;-75
2023/08/01 12:35:41;;;;;;;3.35;3.03;;;22.70;99.90;;;;;;5017286;28;20566;-75
2023/08/01 12:38:09;;;;;;;6.25;3.20;;;22.50;99.90;;;;;;5016259;28;20283;-74
2023/08/01 12:40:35;;;;;;;5.18;3.17;;;22.50;99.90;;;;;;5018493;28;20255;-75
2023/08/01 12:43:00;;;;;;;5.82;3.75;;;22.60;99.90;;;;;;5020994;28;20310;-74
2023/08/01 12:45:26;;;;;;;4.07;3.17;;;22.40;99.90;;;;;;5032508;28;20207;-75